createdAt,value
2023-05-02T00:00:08.790Z,4.50
2023-05-02T00:01:07.955Z,4.10
2023-05-02T00:02:08.012Z,4.80
2023-05-02T00:03:08.008Z,4.30
2023-05-02T00:04:08.020Z,4.50
2023-05-02T00:05:07.917Z,4.00
2023-05-02T00:06:07.978Z,4.10
2023-05-02T00:07:07.963Z,4.70
2023-05-02T00:08:07.929Z,4.50
2023-05-02T00:09:08.008Z,4.20
2023-05-02T00:10:07.911Z,4.80
2023-05-02T00:11:07.902Z,4.60
2023-05-02T00:12:07.893Z,4.00
2023-05-02T00:13:07.997Z,4.30
2023-05-02T00:14:07.872Z,4.20
2023-05-02T00:15:07.873Z,3.80
2023-05-02T00:16:07.864Z,4.90
2023-05-02T00:17:07.949Z,4.20
2023-05-02T00:18:07.922Z,4.20
2023-05-02T00:19:07.933Z,4.60
2023-05-02T00:20:07.836Z,4.70
2023-05-02T00:21:07.817Z,4.00
2023-05-02T00:22:07.809Z,5.70
2023-05-02T00:23:07.890Z,4.20
2023-05-02T00:24:07.827Z,4.60
2023-05-02T00:25:07.804Z,4.40
2023-05-02T00:26:07.830Z,4.30
2023-05-02T00:27:07.792Z,5.20
2023-05-02T00:28:07.819Z,4.60
2023-05-02T00:29:07.830Z,4.50
2023-05-02T00:30:07.814Z,4.90
2023-05-02T00:31:08.795Z,5.20
2023-05-02T00:32:07.799Z,4.80
2023-05-02T00:33:07.815Z,5.00
2023-05-02T00:34:07.815Z,5.20
2023-05-02T00:35:07.732Z,4.90
2023-05-02T00:36:07.713Z,6.20
2023-05-02T00:37:07.729Z,4.50
2023-05-02T00:38:07.834Z,5.10
2023-05-02T00:39:07.733Z,5.20
2023-05-02T00:40:07.720Z,5.40
2023-05-02T00:41:07.698Z,5.40
2023-05-02T00:42:07.695Z,7.20
2023-05-02T00:43:07.744Z,5.00
2023-05-02T00:44:07.697Z,6.50
2023-05-02T00:45:07.675Z,5.20
2023-05-02T00:46:07.739Z,5.30
2023-05-02T00:47:07.704Z,5.50
2023-05-02T00:48:07.717Z,5.30
2023-05-02T00:49:07.673Z,6.30
2023-05-02T00:50:07.663Z,5.30
2023-05-02T00:51:07.626Z,5.50
2023-05-02T00:52:07.617Z,7.40
2023-05-02T00:53:07.653Z,6.20
2023-05-02T00:54:07.613Z,6.20
2023-05-02T00:55:07.733Z,6.90
2023-05-02T00:56:07.646Z,6.40
2023-05-02T00:57:07.653Z,6.70
2023-05-02T00:58:07.629Z,6.90
2023-05-02T00:59:07.652Z,7.00
2023-05-02T01:00:07.600Z,7.00
2023-05-02T01:01:07.630Z,6.80
2023-05-02T01:02:07.682Z,7.30
2023-05-02T01:03:07.776Z,7.10
2023-05-02T01:04:07.774Z,6.60
2023-05-02T01:05:07.584Z,7.30
2023-05-02T01:06:07.577Z,7.10
2023-05-02T01:07:07.517Z,7.50
2023-05-02T01:08:08.495Z,7.30
2023-05-02T01:09:07.533Z,7.10
2023-05-02T01:10:07.520Z,7.00
2023-05-02T01:11:07.482Z,7.20
2023-05-02T01:12:07.474Z,7.70
2023-05-02T01:13:07.529Z,8.00
2023-05-02T01:14:07.502Z,7.00
2023-05-02T01:15:07.475Z,6.80
2023-05-02T01:16:07.536Z,7.20
2023-05-02T01:17:07.533Z,7.40
2023-05-02T01:18:07.504Z,7.60
2023-05-02T01:19:07.467Z,7.70
2023-05-02T01:20:07.424Z,7.40
2023-05-02T01:21:07.434Z,8.30
2023-05-02T01:22:07.423Z,7.60
2023-05-02T01:23:07.425Z,7.10
2023-05-02T01:24:07.416Z,6.80
2023-05-02T01:25:08.282Z,6.20
2023-05-02T01:26:07.435Z,6.00
2023-05-02T01:27:07.418Z,6.60
2023-05-02T01:28:07.388Z,7.40
2023-05-02T01:29:07.385Z,7.00
2023-05-02T01:30:07.374Z,6.70
2023-05-02T01:31:07.389Z,6.20
2023-05-02T01:32:07.599Z,6.50
2023-05-02T01:33:07.397Z,7.40
2023-05-02T01:34:07.360Z,7.00
2023-05-02T01:35:07.386Z,7.40
2023-05-02T01:36:07.328Z,7.30
2023-05-02T01:37:07.326Z,6.50
2023-05-02T01:38:07.301Z,7.00
2023-05-02T01:39:07.334Z,9.40
2023-05-02T01:40:07.300Z,7.40
2023-05-02T01:41:07.337Z,6.50
2023-05-02T01:42:07.305Z,8.40
2023-05-02T01:43:07.329Z,7.40
2023-05-02T01:44:07.302Z,7.30
2023-05-02T01:45:07.268Z,7.10
2023-05-02T01:46:07.299Z,8.40
2023-05-02T01:47:07.517Z,7.60
2023-05-02T01:48:07.327Z,7.50
2023-05-02T01:49:07.259Z,7.00
2023-05-02T01:50:07.217Z,7.50
2023-05-02T01:51:07.273Z,8.00
2023-05-02T01:52:07.274Z,9.40
2023-05-02T01:53:07.214Z,7.50
2023-05-02T01:54:07.733Z,8.40
2023-05-02T01:55:07.241Z,7.70
2023-05-02T01:56:07.206Z,12.00
2023-05-02T01:57:07.197Z,9.40
2023-05-02T01:58:07.210Z,10.50
2023-05-02T01:59:07.168Z,10.40
2023-05-02T02:00:07.201Z,11.70
2023-05-02T02:01:07.209Z,10.90
2023-05-02T02:02:07.297Z,12.10
2023-05-02T02:03:07.219Z,11.80
2023-05-02T02:04:07.194Z,14.40
2023-05-02T02:05:07.154Z,10.70
2023-05-02T02:06:07.748Z,10.10
2023-05-02T02:07:07.142Z,10.20
2023-05-02T02:08:07.134Z,9.40
2023-05-02T02:09:07.091Z,10.10
2023-05-02T02:10:07.118Z,9.20
2023-05-02T02:11:07.092Z,10.90
2023-05-02T02:12:07.136Z,13.00
2023-05-02T02:13:07.130Z,13.40
2023-05-02T02:14:07.080Z,14.40
2023-05-02T02:15:07.132Z,10.60
2023-05-02T02:16:07.080Z,14.40
2023-05-02T02:17:07.179Z,12.30
2023-05-02T02:18:07.825Z,12.00
2023-05-02T02:19:07.048Z,11.00
2023-05-02T02:20:07.052Z,12.40
2023-05-02T02:21:07.072Z,12.70
2023-05-02T02:22:07.026Z,12.00
2023-05-02T02:23:07.002Z,11.50
2023-05-02T02:24:07.007Z,11.50
2023-05-02T02:25:06.995Z,11.90
2023-05-02T02:26:39.522Z,11.20
2023-05-02T02:27:39.405Z,12.00
2023-05-02T02:28:39.407Z,11.20
2023-05-02T02:29:06.979Z,11.20
2023-05-02T02:30:40.430Z,12.40
2023-05-02T02:31:39.455Z,12.50
2023-05-02T02:32:40.566Z,12.40
2023-05-02T02:33:40.422Z,12.50
2023-05-02T02:34:07.201Z,13.30
2023-05-02T02:35:54.801Z,12.90
2023-05-02T02:36:55.935Z,12.90
2023-05-02T02:37:55.921Z,12.60
2023-05-02T02:38:55.938Z,14.50
2023-05-02T02:39:55.915Z,14.70
2023-05-02T02:40:56.018Z,13.90
2023-05-02T02:41:55.887Z,13.30
2023-05-02T02:42:55.895Z,13.90
2023-05-02T02:43:55.877Z,14.00
2023-05-02T02:44:55.861Z,13.90
2023-05-02T02:45:55.980Z,15.20
2023-05-02T02:46:55.909Z,15.70
2023-05-02T02:47:55.926Z,16.00
2023-05-02T02:48:55.824Z,14.30
2023-05-02T02:49:55.836Z,14.90
2023-05-02T02:50:55.898Z,16.60
2023-05-02T02:51:55.801Z,14.80
2023-05-02T02:52:55.825Z,15.20
2023-05-02T02:53:55.825Z,16.10
2023-05-02T02:54:55.799Z,16.80
2023-05-02T02:55:55.814Z,18.60
2023-05-02T02:56:55.787Z,18.60
2023-05-02T02:57:55.773Z,17.80
2023-05-02T02:58:55.777Z,18.40
2023-05-02T02:59:55.801Z,17.80
2023-05-02T03:00:55.737Z,19.40
2023-05-02T03:01:55.795Z,17.60
2023-05-02T03:02:55.819Z,17.50
2023-05-02T03:03:55.797Z,18.30
2023-05-02T03:04:55.734Z,18.80
2023-05-02T03:05:55.716Z,20.10
2023-05-02T03:06:55.844Z,17.80
2023-05-02T03:07:55.696Z,17.00
2023-05-02T03:08:55.709Z,16.10
2023-05-02T03:09:55.697Z,17.90
2023-05-02T03:10:55.759Z,17.70
2023-05-02T03:11:55.688Z,18.10
2023-05-02T03:12:55.992Z,18.30
2023-05-02T03:13:55.693Z,17.00
2023-05-02T03:14:55.702Z,16.60
2023-05-02T03:15:55.797Z,17.20
2023-05-02T03:16:55.649Z,17.10
2023-05-02T03:17:55.695Z,18.10
2023-05-02T03:18:55.696Z,17.10
2023-05-02T03:19:55.650Z,18.20
2023-05-02T03:20:55.629Z,17.20
2023-05-02T03:21:55.618Z,17.20
2023-05-02T03:22:55.647Z,16.70
2023-05-02T03:23:55.604Z,16.80
2023-05-02T03:24:55.600Z,15.90
2023-05-02T03:25:55.619Z,17.70
2023-05-02T03:26:55.589Z,17.00
2023-05-02T03:27:55.602Z,16.50
2023-05-02T03:28:55.590Z,16.80
2023-05-02T03:29:55.611Z,17.00
2023-05-02T03:30:55.575Z,17.40
2023-05-02T03:31:55.624Z,17.40
2023-05-02T03:32:55.644Z,16.20
2023-05-02T03:33:55.508Z,17.10
2023-05-02T03:34:55.517Z,17.50
2023-05-02T03:35:55.525Z,17.20
2023-05-02T03:36:55.673Z,18.00
2023-05-02T03:37:55.526Z,17.70
2023-05-02T03:38:55.493Z,17.60
2023-05-02T03:39:55.479Z,18.10
2023-05-02T03:40:55.535Z,18.70
2023-05-02T03:41:55.518Z,18.50
2023-05-02T03:42:55.476Z,18.70
2023-05-02T03:43:55.531Z,19.60
2023-05-02T03:44:55.512Z,19.40
2023-05-02T03:45:55.489Z,19.30
2023-05-02T03:46:55.502Z,20.20
2023-05-02T03:47:55.536Z,19.20
2023-05-02T03:48:55.462Z,20.50
2023-05-02T03:49:55.475Z,19.90
2023-05-02T03:50:55.453Z,20.10
2023-05-02T03:51:55.423Z,22.80
2023-05-02T03:52:55.434Z,20.70
2023-05-02T03:53:55.444Z,20.40
2023-05-02T03:54:55.397Z,21.20
2023-05-02T03:55:55.435Z,20.60
2023-05-02T03:56:55.394Z,21.30
2023-05-02T03:57:55.384Z,20.20
2023-05-02T03:58:55.466Z,20.40
2023-05-02T03:59:55.383Z,21.30
2023-05-02T04:00:55.381Z,21.90
2023-05-02T04:01:55.441Z,21.80
2023-05-02T04:02:55.468Z,21.70
2023-05-02T04:03:55.380Z,21.80
2023-05-02T04:04:55.392Z,22.30
2023-05-02T04:05:55.371Z,21.50
2023-05-02T04:06:55.402Z,21.50
2023-05-02T04:07:55.311Z,21.90
2023-05-02T04:08:55.284Z,21.50
2023-05-02T04:09:55.279Z,20.80
2023-05-02T04:10:55.328Z,23.10
2023-05-02T04:11:55.342Z,22.50
2023-05-02T04:12:55.271Z,23.50
2023-05-02T04:13:55.249Z,25.10
2023-05-02T04:14:55.268Z,26.80
2023-05-02T04:15:55.272Z,23.50
2023-05-02T04:16:55.344Z,25.00
2023-05-02T04:17:55.306Z,24.80
2023-05-02T04:18:55.243Z,27.00
2023-05-02T04:19:55.213Z,25.10
2023-05-02T04:20:55.272Z,26.00
2023-05-02T04:21:55.201Z,25.50
2023-05-02T04:22:55.245Z,28.40
2023-05-02T04:23:55.188Z,30.30
2023-05-02T04:24:55.212Z,26.30
2023-05-02T04:25:55.208Z,26.50
2023-05-02T04:26:55.221Z,30.20
2023-05-02T04:27:55.238Z,25.60
2023-05-02T04:28:55.186Z,27.00
2023-05-02T04:29:55.188Z,28.00
2023-05-02T04:30:55.227Z,27.40
2023-05-02T04:31:55.141Z,26.30
2023-05-02T04:32:55.250Z,28.00
2023-05-02T04:33:55.136Z,27.10
2023-05-02T04:34:56.254Z,26.90
2023-05-02T04:35:55.158Z,31.90
2023-05-02T04:36:55.095Z,30.10
2023-05-02T04:37:55.100Z,28.10
2023-05-02T04:38:55.124Z,29.10
2023-05-02T04:39:55.086Z,31.40
2023-05-02T04:40:55.100Z,29.70
2023-05-02T04:41:55.082Z,28.80
2023-05-02T04:42:55.059Z,32.00
2023-05-02T04:43:55.079Z,30.60
2023-05-02T04:44:55.065Z,29.70
2023-05-02T04:45:55.106Z,28.60
2023-05-02T04:46:55.120Z,30.30
2023-05-02T04:47:55.122Z,30.50
2023-05-02T04:48:55.026Z,31.60
2023-05-02T04:49:55.071Z,30.40
2023-05-02T04:50:55.054Z,30.30
2023-05-02T04:51:55.048Z,30.40
2023-05-02T04:52:55.001Z,29.70
2023-05-02T04:53:55.011Z,29.10
2023-05-02T04:54:54.994Z,30.10
2023-05-02T04:55:55.002Z,32.60
2023-05-02T04:56:55.034Z,31.60
2023-05-02T04:57:54.966Z,31.40
2023-05-02T04:58:54.995Z,31.10
2023-05-02T04:59:55.017Z,29.90
2023-05-02T05:00:55.149Z,31.70
2023-05-02T05:01:55.011Z,32.00
2023-05-02T05:02:55.721Z,32.40
2023-05-02T05:03:55.016Z,31.60
2023-05-02T05:04:54.957Z,31.70
2023-05-02T05:05:54.958Z,32.30
2023-05-02T05:06:55.042Z,34.00
2023-05-02T05:07:54.893Z,32.40
2023-05-02T05:08:54.899Z,34.10
2023-05-02T05:09:54.905Z,32.40
2023-05-02T05:10:54.878Z,32.00
2023-05-02T05:11:54.857Z,32.30
2023-05-02T05:12:54.883Z,34.00
2023-05-02T05:13:54.861Z,34.40
2023-05-02T05:14:54.878Z,36.00
2023-05-02T05:15:54.893Z,34.40
2023-05-02T05:16:54.838Z,34.50
2023-05-02T05:17:54.837Z,33.00
2023-05-02T05:18:54.831Z,35.40
2023-05-02T05:19:55.857Z,43.80
2023-05-02T05:20:54.811Z,47.10
2023-05-02T05:21:54.824Z,35.10
2023-05-02T05:22:54.825Z,37.20
2023-05-02T05:23:54.798Z,35.90
2023-05-02T05:24:54.810Z,36.40
2023-05-02T05:25:54.781Z,35.20
2023-05-02T05:26:55.770Z,35.70
2023-05-02T05:27:54.769Z,36.50
2023-05-02T05:28:54.777Z,41.90
2023-05-02T05:29:54.747Z,36.10
2023-05-02T05:30:54.734Z,34.90
2023-05-02T05:31:54.817Z,36.20
2023-05-02T05:32:54.806Z,34.10
2023-05-02T05:33:54.769Z,36.30
2023-05-02T05:34:54.721Z,33.60
2023-05-02T05:35:54.733Z,36.50
2023-05-02T05:36:54.711Z,36.30
2023-05-02T05:37:54.728Z,37.30
2023-05-02T05:38:54.689Z,37.00
2023-05-02T05:39:54.716Z,38.60
2023-05-02T05:40:54.737Z,38.40
2023-05-02T05:41:54.675Z,39.60
2023-05-02T05:42:54.683Z,36.00
2023-05-02T05:43:54.685Z,39.60
2023-05-02T05:44:54.641Z,35.80
2023-05-02T05:45:54.818Z,37.30
2023-05-02T05:46:54.733Z,37.90
2023-05-02T05:47:54.690Z,39.20
2023-05-02T05:48:54.626Z,35.80
2023-05-02T05:49:54.643Z,38.10
2023-05-02T05:50:54.660Z,38.10
2023-05-02T05:51:54.615Z,38.30
2023-05-02T05:52:54.623Z,35.80
2023-05-02T05:53:54.609Z,35.60
2023-05-02T05:54:54.597Z,38.10
2023-05-02T05:55:54.609Z,36.10
2023-05-02T05:56:54.580Z,35.50
2023-05-02T05:57:54.592Z,33.20
2023-05-02T05:58:54.586Z,34.10
2023-05-02T05:59:54.576Z,37.80
2023-05-02T06:00:54.576Z,39.10
2023-05-02T06:01:54.572Z,39.40
2023-05-02T06:02:54.582Z,40.40
2023-05-02T06:03:54.571Z,40.40
2023-05-02T06:04:54.569Z,42.10
2023-05-02T06:05:54.543Z,39.70
2023-05-02T06:06:54.560Z,42.90
2023-05-02T06:07:54.484Z,42.90
2023-05-02T06:08:54.515Z,39.40
2023-05-02T06:09:54.505Z,39.80
2023-05-02T06:10:54.491Z,36.70
2023-05-02T06:11:54.479Z,36.30
2023-05-02T06:12:54.486Z,39.00
2023-05-02T06:13:54.474Z,38.30
2023-05-02T06:14:54.451Z,37.70
2023-05-02T06:15:54.485Z,37.20
2023-05-02T06:16:54.752Z,36.00
2023-05-02T06:17:54.465Z,34.60
2023-05-02T06:18:54.417Z,34.90
2023-05-02T06:19:54.420Z,36.70
2023-05-02T06:20:54.698Z,36.40
2023-05-02T06:21:54.415Z,33.50
2023-05-02T06:22:54.397Z,36.70
2023-05-02T06:23:54.438Z,36.00
2023-05-02T06:24:54.374Z,38.80
2023-05-02T06:25:54.399Z,37.40
2023-05-02T06:26:54.384Z,38.30
2023-05-02T06:27:54.371Z,36.90
2023-05-02T06:28:54.362Z,37.90
2023-05-02T06:29:54.342Z,33.10
2023-05-02T06:30:54.329Z,34.70
2023-05-02T06:31:54.376Z,37.60
2023-05-02T06:32:54.423Z,37.90
2023-05-02T06:33:54.311Z,32.60
2023-05-02T06:34:54.324Z,33.50
2023-05-02T06:35:54.330Z,32.30
2023-05-02T06:36:54.297Z,32.30
2023-05-02T06:37:54.288Z,34.60
2023-05-02T06:38:54.291Z,32.40
2023-05-02T06:39:54.291Z,33.10
2023-05-02T06:40:54.267Z,36.30
2023-05-02T06:41:54.261Z,35.50
2023-05-02T06:42:54.279Z,34.70
2023-05-02T06:43:54.221Z,30.90
2023-05-02T06:44:54.236Z,29.50
2023-05-02T06:45:54.223Z,28.30
2023-05-02T06:46:54.295Z,29.30
2023-05-02T06:47:54.331Z,32.70
2023-05-02T06:48:54.246Z,28.20
2023-05-02T06:49:54.239Z,24.40
2023-05-02T06:50:54.218Z,27.00
2023-05-02T06:51:54.179Z,23.00
2023-05-02T06:52:54.225Z,19.70
2023-05-02T06:53:54.242Z,19.80
2023-05-02T06:54:54.158Z,20.70
2023-05-02T06:55:54.165Z,24.40
2023-05-02T06:56:54.210Z,20.80
2023-05-02T06:57:54.134Z,21.60
2023-05-02T06:58:54.151Z,21.90
2023-05-02T06:59:54.159Z,21.10
2023-05-02T07:00:54.170Z,23.00
2023-05-02T07:01:54.213Z,20.30
2023-05-02T07:02:54.154Z,22.60
2023-05-02T07:03:54.152Z,18.50
2023-05-02T07:04:54.107Z,20.20
2023-05-02T07:05:55.116Z,21.80
2023-05-02T07:06:54.169Z,18.40
2023-05-02T07:07:54.100Z,20.50
2023-05-02T07:08:54.081Z,19.50
2023-05-02T07:09:54.076Z,18.50
2023-05-02T07:10:54.066Z,20.30
2023-05-02T07:11:54.088Z,20.10
2023-05-02T07:12:54.064Z,18.60
2023-05-02T07:13:54.033Z,20.10
2023-05-02T07:14:54.140Z,20.30
2023-05-02T07:15:54.040Z,22.10
2023-05-02T07:16:54.128Z,19.40
2023-05-02T07:17:54.030Z,20.00
2023-05-02T07:18:54.029Z,17.20
2023-05-02T07:19:54.017Z,15.10
2023-05-02T07:20:54.004Z,13.10
2023-05-02T07:21:54.017Z,13.80
2023-05-02T07:22:54.002Z,13.00
2023-05-02T07:23:54.006Z,13.70
2023-05-02T07:24:54.077Z,13.50
2023-05-02T07:25:53.969Z,12.70
2023-05-02T07:26:53.983Z,10.80
2023-05-02T07:27:53.967Z,12.30
2023-05-02T07:28:54.003Z,13.20
2023-05-02T07:29:53.930Z,12.20
2023-05-02T07:30:53.955Z,11.80
2023-05-02T07:31:53.984Z,9.60
2023-05-02T07:32:53.969Z,10.30
2023-05-02T07:33:53.954Z,10.60
2023-05-02T07:34:54.703Z,13.20
2023-05-02T07:35:53.912Z,11.30
2023-05-02T07:36:53.908Z,12.20
2023-05-02T07:37:53.903Z,11.40
2023-05-02T07:38:53.998Z,12.90
2023-05-02T07:39:53.905Z,10.70
2023-05-02T07:40:53.869Z,12.40
2023-05-02T07:41:53.864Z,11.00
2023-05-02T07:42:53.862Z,11.00
2023-05-02T07:43:53.923Z,10.20
2023-05-02T07:44:53.879Z,9.90
2023-05-02T07:45:53.864Z,12.10
2023-05-02T07:46:53.824Z,11.90
2023-05-02T07:47:53.906Z,9.70
2023-05-02T07:48:53.855Z,11.60
2023-05-02T07:49:53.824Z,9.10
2023-05-02T07:50:53.798Z,9.70
2023-05-02T07:51:53.804Z,11.10
2023-05-02T07:52:53.798Z,9.90
2023-05-02T07:53:53.806Z,9.70
2023-05-02T07:54:53.820Z,9.70
2023-05-02T07:55:53.785Z,9.70
2023-05-02T07:56:53.780Z,9.40
2023-05-02T07:57:53.778Z,9.80
2023-05-02T07:58:53.775Z,9.90
2023-05-02T07:59:53.753Z,8.00
2023-05-02T08:00:53.798Z,8.20
2023-05-02T08:01:53.749Z,7.70
2023-05-02T08:02:53.808Z,7.30
2023-05-02T08:03:53.822Z,7.00
2023-05-02T08:04:53.817Z,7.40
2023-05-02T08:05:53.743Z,6.20
2023-05-02T08:06:53.828Z,7.00
2023-05-02T08:07:53.731Z,6.90
2023-05-02T08:08:53.736Z,6.90
2023-05-02T08:09:53.704Z,6.30
2023-05-02T08:10:53.686Z,7.60
2023-05-02T08:11:54.670Z,6.90
2023-05-02T08:12:53.681Z,6.40
2023-05-02T08:13:53.654Z,7.50
2023-05-02T08:14:53.666Z,7.10
2023-05-02T08:15:54.717Z,6.80
2023-05-02T08:16:53.650Z,6.60
2023-05-02T08:17:53.654Z,8.10
2023-05-02T08:18:53.682Z,6.90
2023-05-02T08:19:53.608Z,6.90
2023-05-02T08:20:53.670Z,9.90
2023-05-02T08:21:53.615Z,8.10
2023-05-02T08:22:53.642Z,7.90
2023-05-02T08:23:53.620Z,8.40
2023-05-02T08:24:53.596Z,7.30
2023-05-02T08:25:53.616Z,7.30
2023-05-02T08:26:53.576Z,7.00
2023-05-02T08:27:53.591Z,7.40
2023-05-02T08:28:53.588Z,9.70
2023-05-02T08:29:53.557Z,8.70
2023-05-02T08:30:53.566Z,7.30
2023-05-02T08:31:53.651Z,7.00
2023-05-02T08:32:53.621Z,7.30
2023-05-02T08:33:53.549Z,7.00
2023-05-02T08:34:53.518Z,7.30
2023-05-02T08:35:53.537Z,6.80
2023-05-02T08:36:53.963Z,8.10
2023-05-02T08:37:53.499Z,7.50
2023-05-02T08:38:53.500Z,7.00
2023-05-02T08:39:53.524Z,6.30
2023-05-02T08:40:53.467Z,12.80
2023-05-02T08:41:53.490Z,5.30
2023-05-02T08:42:53.454Z,5.30
2023-05-02T08:43:53.460Z,6.60
2023-05-02T08:44:53.466Z,5.10
2023-05-02T08:45:53.449Z,4.80
2023-05-02T08:46:53.488Z,4.90
2023-05-02T08:47:53.439Z,5.30
2023-05-02T08:48:53.427Z,5.50
2023-05-02T08:49:53.448Z,7.00
2023-05-02T08:50:53.402Z,5.20
2023-05-02T08:51:53.422Z,4.90
2023-05-02T08:52:53.392Z,6.10
2023-05-02T08:53:53.431Z,5.20
2023-05-02T08:54:53.373Z,6.80
2023-05-02T08:55:53.379Z,6.30
2023-05-02T08:56:53.363Z,5.80
2023-05-02T08:57:53.379Z,6.20
2023-05-02T08:58:53.356Z,5.10
2023-05-02T08:59:53.340Z,5.00
2023-05-02T09:00:53.560Z,4.70
2023-05-02T09:01:53.378Z,4.80
2023-05-02T09:02:53.331Z,4.90
2023-05-02T09:03:53.348Z,3.90
2023-05-02T09:04:53.328Z,4.30
2023-05-02T09:05:53.390Z,3.80
2023-05-02T09:06:53.377Z,3.50
2023-05-02T09:07:53.305Z,3.70
2023-05-02T09:08:53.335Z,5.60
2023-05-02T09:09:53.399Z,4.50
2023-05-02T09:10:53.309Z,5.30
2023-05-02T09:11:53.287Z,4.60
2023-05-02T09:12:53.287Z,3.80
2023-05-02T09:13:53.278Z,4.30
2023-05-02T09:14:53.267Z,4.90
2023-05-02T09:15:53.249Z,4.40
2023-05-02T09:16:53.596Z,5.20
2023-05-02T09:17:53.242Z,4.20
2023-05-02T09:18:53.227Z,4.40
2023-05-02T09:19:53.219Z,4.00
2023-05-02T09:20:53.222Z,4.40
2023-05-02T09:21:53.231Z,5.30
2023-05-02T09:22:53.236Z,4.90
2023-05-02T09:23:53.200Z,4.40
2023-05-02T09:24:53.196Z,4.90
2023-05-02T09:25:53.181Z,5.10
2023-05-02T09:26:53.214Z,4.90
2023-05-02T09:27:53.196Z,5.00
2023-05-02T09:28:53.160Z,6.30
2023-05-02T09:29:53.172Z,6.10
2023-05-02T09:30:53.174Z,5.40
2023-05-02T09:31:56.092Z,4.90
2023-05-02T09:32:54.175Z,5.00
2023-05-02T09:33:53.140Z,4.60
2023-05-02T09:34:53.137Z,4.40
2023-05-02T09:35:53.124Z,4.20
2023-05-02T09:36:53.150Z,3.60
2023-05-02T09:37:53.130Z,3.40
2023-05-02T09:38:53.098Z,2.80
2023-05-02T09:39:53.407Z,2.70
2023-05-02T09:40:53.269Z,2.70
2023-05-02T09:41:53.071Z,3.40
2023-05-02T09:42:53.122Z,3.30
2023-05-02T09:43:54.071Z,2.10
2023-05-02T09:44:53.073Z,2.60
2023-05-02T09:45:53.091Z,2.20
2023-05-02T09:46:53.117Z,2.50
2023-05-02T09:47:53.140Z,2.60
2023-05-02T09:48:53.091Z,4.10
2023-05-02T09:49:53.065Z,4.00
2023-05-02T09:50:53.045Z,2.40
2023-05-02T09:51:53.027Z,2.80
2023-05-02T09:52:53.015Z,3.60
2023-05-02T09:53:53.008Z,4.30
2023-05-02T09:54:53.056Z,2.60
2023-05-02T09:55:52.994Z,2.60
2023-05-02T09:56:53.061Z,2.20
2023-05-02T09:57:52.958Z,2.90
2023-05-02T09:58:53.006Z,3.70
2023-05-02T09:59:53.023Z,2.90
2023-05-02T10:00:52.948Z,3.20
2023-05-02T10:01:53.050Z,4.10
2023-05-02T10:02:53.150Z,2.90
2023-05-02T10:03:53.012Z,2.90
2023-05-02T10:04:52.947Z,3.20
2023-05-02T10:05:52.962Z,3.10
2023-05-02T10:06:52.995Z,2.90
2023-05-02T10:07:52.910Z,2.60
2023-05-02T10:08:52.906Z,3.10
2023-05-02T10:09:52.905Z,2.60
2023-05-02T10:10:52.882Z,3.20
2023-05-02T10:11:52.970Z,2.50
2023-05-02T10:12:52.892Z,3.50
2023-05-02T10:13:52.885Z,2.50
2023-05-02T10:14:52.870Z,3.60
2023-05-02T10:15:52.956Z,2.60
2023-05-02T10:16:52.870Z,2.80
2023-05-02T10:17:52.953Z,5.70
2023-05-02T10:18:52.842Z,2.60
2023-05-02T10:19:52.860Z,2.90
2023-05-02T10:20:52.823Z,3.00
2023-05-02T10:21:52.867Z,3.30
2023-05-02T10:22:52.843Z,3.20
2023-05-02T10:23:52.818Z,2.70
2023-05-02T10:24:52.796Z,2.60
2023-05-02T10:25:52.793Z,3.10
2023-05-02T10:26:52.790Z,2.40
2023-05-02T10:27:52.812Z,3.20
2023-05-02T10:28:52.796Z,2.10
2023-05-02T10:29:52.771Z,2.60
2023-05-02T10:30:52.758Z,2.30
2023-05-02T10:31:52.822Z,2.70
2023-05-02T10:32:52.792Z,2.60
2023-05-02T10:33:52.730Z,3.10
2023-05-02T10:34:52.746Z,2.90
2023-05-02T10:35:52.724Z,2.50
2023-05-02T10:36:52.723Z,3.50
2023-05-02T10:37:52.740Z,3.20
2023-05-02T10:38:52.706Z,3.60
2023-05-02T10:39:52.712Z,3.40
2023-05-02T10:40:52.716Z,3.40
2023-05-02T10:41:52.731Z,3.10
2023-05-02T10:42:52.770Z,3.40
2023-05-02T10:43:52.681Z,4.10
2023-05-02T10:44:52.655Z,2.50
2023-05-02T10:45:52.656Z,3.80
2023-05-02T10:46:52.734Z,2.90
2023-05-02T10:47:52.727Z,3.30
2023-05-02T10:48:52.672Z,3.40
2023-05-02T10:49:53.768Z,3.50
2023-05-02T10:50:52.650Z,3.30
2023-05-02T10:51:52.637Z,3.90
2023-05-02T10:52:52.618Z,2.80
2023-05-02T10:53:52.624Z,3.90
2023-05-02T10:54:52.613Z,4.90
2023-05-02T10:55:52.648Z,3.10
2023-05-02T10:56:52.640Z,3.00
2023-05-02T10:57:52.584Z,3.60
2023-05-02T10:58:52.581Z,4.00
2023-05-02T10:59:52.636Z,4.10
2023-05-02T11:00:52.725Z,2.50
2023-05-02T11:01:52.634Z,3.50
2023-05-02T11:02:52.753Z,3.20
2023-05-02T11:03:52.561Z,3.40
2023-05-02T11:04:52.540Z,2.90
2023-05-02T11:05:52.557Z,2.90
2023-05-02T11:06:52.525Z,2.70
2023-05-02T11:07:52.539Z,5.30
2023-05-02T11:08:52.560Z,2.60
2023-05-02T11:09:52.582Z,3.10
2023-05-02T11:10:52.530Z,2.60
2023-05-02T11:11:52.518Z,3.40
2023-05-02T11:12:52.560Z,16.10
2023-05-02T11:13:52.512Z,3.20
2023-05-02T11:14:52.502Z,3.10
2023-05-02T11:15:52.489Z,2.80
2023-05-02T11:16:52.554Z,3.10
2023-05-02T11:17:52.510Z,3.80
2023-05-02T11:18:52.497Z,3.90
2023-05-02T11:19:52.444Z,3.50
2023-05-02T11:20:52.448Z,2.80
2023-05-02T11:21:52.488Z,3.00
2023-05-02T11:22:52.457Z,4.20
2023-05-02T11:23:52.406Z,3.50
2023-05-02T11:24:52.426Z,4.60
2023-05-02T11:25:52.424Z,4.20
2023-05-02T11:26:52.406Z,3.30
2023-05-02T11:27:52.410Z,3.50
2023-05-02T11:28:52.372Z,4.80
2023-05-02T11:29:52.383Z,8.00
2023-05-02T11:30:52.388Z,4.10
2023-05-02T11:31:52.423Z,3.80
2023-05-02T11:32:52.383Z,4.00
2023-05-02T11:33:52.440Z,4.30
2023-05-02T11:34:52.341Z,5.10
2023-05-02T11:35:53.296Z,5.10
2023-05-02T11:36:52.347Z,6.70
2023-05-02T11:37:52.309Z,5.20
2023-05-02T11:38:52.360Z,6.20
2023-05-02T11:39:52.357Z,7.10
2023-05-02T11:40:52.301Z,5.70
2023-05-02T11:41:52.308Z,5.00
2023-05-02T11:42:52.279Z,6.50
2023-05-02T11:43:53.290Z,6.90
2023-05-02T11:44:52.280Z,5.70
2023-05-02T11:45:52.317Z,6.20
2023-05-02T11:46:52.330Z,7.70
2023-05-02T11:47:52.293Z,7.30
2023-05-02T11:48:52.275Z,8.60
2023-05-02T11:49:52.233Z,8.60
2023-05-02T11:50:52.228Z,6.80
2023-05-02T11:51:53.286Z,9.60
2023-05-02T11:52:52.241Z,10.50
2023-05-02T11:53:52.240Z,10.80
2023-05-02T11:54:52.218Z,7.20
2023-05-02T11:55:52.249Z,7.40
2023-05-02T11:56:52.215Z,11.80
2023-05-02T11:57:52.212Z,8.60
2023-05-02T11:58:52.270Z,9.00
2023-05-02T11:59:52.189Z,10.20
2023-05-02T12:00:52.202Z,11.70
2023-05-02T12:01:52.233Z,11.60
2023-05-02T12:02:52.214Z,10.70
2023-05-02T12:03:52.181Z,11.60
2023-05-02T12:04:52.157Z,8.60
2023-05-02T12:05:52.234Z,10.90
2023-05-02T12:06:52.263Z,11.20
2023-05-02T12:07:52.213Z,14.50
2023-05-02T12:08:52.202Z,12.30
2023-05-02T12:09:52.124Z,10.90
2023-05-02T12:10:52.136Z,12.90
2023-05-02T12:11:52.135Z,14.90
2023-05-02T12:12:52.132Z,12.40
2023-05-02T12:13:52.121Z,9.40
2023-05-02T12:14:52.123Z,12.90
2023-05-02T12:15:52.210Z,10.90
2023-05-02T12:16:52.115Z,9.60
2023-05-02T12:17:52.143Z,10.50
2023-05-02T12:18:52.057Z,10.00
2023-05-02T12:19:52.081Z,12.80
2023-05-02T12:20:52.105Z,17.00
2023-05-02T12:21:52.046Z,16.10
2023-05-02T12:22:52.784Z,12.50
2023-05-02T12:23:52.110Z,15.60
2023-05-02T12:24:52.176Z,13.70
2023-05-02T12:25:52.042Z,13.60
2023-05-02T12:26:52.997Z,12.40
2023-05-02T12:27:52.012Z,12.00
2023-05-02T12:28:52.045Z,10.90
2023-05-02T12:29:52.085Z,10.00
2023-05-02T12:30:52.036Z,10.30
2023-05-02T12:31:52.074Z,12.70
2023-05-02T12:32:52.027Z,10.30
2023-05-02T12:33:51.994Z,10.60
2023-05-02T12:34:51.982Z,10.70
2023-05-02T12:35:52.016Z,12.90
2023-05-02T12:36:52.010Z,11.90
2023-05-02T12:37:51.961Z,9.50
2023-05-02T12:38:51.950Z,8.40
2023-05-02T12:39:51.990Z,12.60
2023-05-02T12:40:51.946Z,12.40
2023-05-02T12:41:51.924Z,11.20
2023-05-02T12:42:51.951Z,11.90
2023-05-02T12:43:51.919Z,14.50
2023-05-02T12:44:51.978Z,12.80
2023-05-02T12:45:51.974Z,10.70
2023-05-02T12:46:51.930Z,11.90
2023-05-02T12:47:51.937Z,11.40
2023-05-02T12:48:51.880Z,10.00
2023-05-02T12:49:51.879Z,11.80
2023-05-02T12:50:51.927Z,11.80
2023-05-02T12:51:51.871Z,12.50
2023-05-02T12:52:51.910Z,13.90
2023-05-02T12:53:51.890Z,13.10
2023-05-02T12:54:51.892Z,11.80
2023-05-02T12:55:51.853Z,11.50
2023-05-02T12:56:51.874Z,15.50
2023-05-02T12:57:51.836Z,12.80
2023-05-02T12:58:51.840Z,12.50
2023-05-02T12:59:51.800Z,14.40
2023-05-02T13:00:51.805Z,13.70
2023-05-02T13:01:51.811Z,13.20
2023-05-02T13:02:51.841Z,13.30
2023-05-02T13:03:51.828Z,11.90
2023-05-02T13:04:51.818Z,12.30